Time;durP1;ratioP1;P1;durP2;ratioP2;P2;SDS_P1;SDS_P2;PMS_P1;PMS_P2;Temp;Humidity;BMP_temperature;BMP_pressure;BME280_temperature;BME280_humidity;BME280_pressure;Samples;Min_cycle;Max_cycle;Signal;HPM_P1;HPM_P2
2020/12/25 00:03:32;;;;;;;208.87;167.13;;;19.90;51.40;;;;;;4703032;56;21212;-28
2020/12/25 00:08:33;;;;;;;211.25;170.07;;;19.90;51.40;;;;;;4666971;56;21567;-26
2020/12/25 00:13:34;;;;;;;210.75;169.95;;;19.90;51.30;;;;;;4657782;60;21110;-26
2020/12/25 00:18:35;;;;;;;209.70;168.07;;;19.90;51.40;;;;;;4671446;56;21339;-30
2020/12/25 00:23:35;;;;;;;208.15;166.88;;;19.90;51.30;;;;;;4697865;56;21034;-26
2020/12/25 00:28:36;;;;;;;207.05;164.73;;;19.90;51.30;;;;;;4673710;56;21051;-22
2020/12/25 00:33:38;;;;;;;203.57;162.37;;;19.90;51.30;;;;;;4668594;56;21066;-26
2020/12/25 00:38:39;;;;;;;201.25;159.73;;;20.00;51.30;;;;;;4674776;56;21014;-29
2020/12/25 00:43:40;;;;;;;202.10;160.80;;;20.00;51.30;;;;;;4666089;56;21019;-19
2020/12/25 00:48:41;;;;;;;197.05;152.70;;;20.00;51.50;;;;;;4679367;56;22286;-27
2020/12/25 00:53:42;;;;;;;198.05;155.75;;;20.00;51.40;;;;;;4657864;60;21070;-20
2020/12/25 00:58:45;;;;;;;198.25;154.75;;;19.90;51.30;;;;;;4705991;56;21066;-24
2020/12/25 01:03:46;;;;;;;196.68;156.35;;;20.00;51.40;;;;;;4658451;60;22261;-22
2020/12/25 01:08:49;;;;;;;198.32;157.15;;;19.90;51.30;;;;;;4721196;56;21124;-26
2020/12/25 01:13:50;;;;;;;189.62;151.68;;;20.00;51.30;;;;;;4657755;55;21087;-21
2020/12/25 01:18:51;;;;;;;188.43;151.73;;;20.00;51.40;;;;;;4658820;60;21536;-26
2020/12/25 01:23:51;;;;;;;186.45;145.93;;;19.90;51.30;;;;;;4673265;56;21617;-25
2020/12/25 01:29:00;;;;;;;184.43;146.10;;;20.00;51.20;;;;;;4658159;60;21473;-24
2020/12/25 01:34:01;;;;;;;183.80;145.30;;;20.00;51.30;;;;;;4689080;55;21141;-28
2020/12/25 01:39:03;;;;;;;180.80;146.05;;;20.00;51.20;;;;;;4662639;56;21118;-25
2020/12/25 01:44:04;;;;;;;182.18;144.57;;;20.00;51.20;;;;;;4672812;55;21015;-29
2020/12/25 01:49:04;;;;;;;181.30;146.52;;;20.00;51.20;;;;;;4676041;56;21493;-33
2020/12/25 01:54:06;;;;;;;174.65;138.73;;;20.00;51.10;;;;;;4662234;55;21127;-23
2020/12/25 01:59:07;;;;;;;173.40;139.27;;;20.00;51.20;;;;;;4660413;55;21011;-26
2020/12/25 02:04:08;;;;;;;177.50;139.82;;;20.00;51.30;;;;;;4665402;56;21110;-20
2020/12/25 02:09:09;;;;;;;175.70;139.45;;;20.00;51.20;;;;;;4676114;56;21521;-31
2020/12/25 02:14:10;;;;;;;172.25;136.80;;;19.90;51.30;;;;;;4710482;56;21098;-29
2020/12/25 02:19:12;;;;;;;168.57;135.90;;;20.00;51.20;;;;;;4661554;55;21046;-27
2020/12/25 02:24:13;;;;;;;167.60;135.52;;;20.00;51.20;;;;;;4694695;55;21469;-29
2020/12/25 02:29:13;;;;;;;166.80;131.55;;;20.00;51.20;;;;;;4693274;56;21165;-31
2020/12/25 02:34:14;;;;;;;168.48;133.40;;;20.00;51.20;;;;;;4666600;56;21489;-20
2020/12/25 02:39:15;;;;;;;164.27;131.57;;;20.00;51.20;;;;;;4662761;56;21038;-22
2020/12/25 02:44:16;;;;;;;166.65;133.02;;;20.00;51.20;;;;;;4687178;55;21104;-27
2020/12/25 02:49:17;;;;;;;163.30;131.10;;;20.00;51.10;;;;;;4662929;56;21576;-20
2020/12/25 02:54:18;;;;;;;165.12;130.75;;;20.00;51.10;;;;;;4710042;56;21038;-28
2020/12/25 02:59:19;;;;;;;159.12;128.05;;;20.00;51.10;;;;;;4664093;56;21469;-28
2020/12/25 03:04:20;;;;;;;152.20;123.75;;;20.00;51.20;;;;;;4658251;60;21050;-27
2020/12/25 03:09:21;;;;;;;154.30;124.85;;;20.00;51.70;;;;;;4672802;55;21066;-22
2020/12/25 03:14:22;;;;;;;153.90;124.32;;;20.00;51.10;;;;;;4657467;60;21083;-30
2020/12/25 03:19:23;;;;;;;151.70;123.50;;;20.00;51.20;;;;;;4665371;56;21480;-24
2020/12/25 03:24:23;;;;;;;148.27;121.35;;;20.00;51.20;;;;;;4664175;56;21066;-25
2020/12/25 03:29:24;;;;;;;146.45;118.68;;;20.00;51.10;;;;;;4678732;56;21031;-25
2020/12/25 03:34:28;;;;;;;145.75;118.28;;;20.00;51.20;;;;;;4713051;56;21078;-29
2020/12/25 03:39:29;;;;;;;145.80;118.53;;;20.00;51.10;;;;;;4662961;56;21481;-28
2020/12/25 03:44:29;;;;;;;143.82;117.90;;;20.00;51.10;;;;;;4663127;56;21035;-22
2020/12/25 03:49:30;;;;;;;140.30;115.93;;;20.00;51.20;;;;;;4664478;56;21497;-22
2020/12/25 03:54:31;;;;;;;144.10;118.00;;;20.00;51.10;;;;;;4663920;56;21109;-29
2020/12/25 03:59:32;;;;;;;141.62;115.25;;;20.00;51.10;;;;;;4663973;56;21165;-26
2020/12/25 04:04:33;;;;;;;137.85;112.15;;;20.00;51.10;;;;;;4665909;56;21304;-30
2020/12/25 04:09:34;;;;;;;135.75;111.88;;;20.00;51.10;;;;;;4701429;56;21054;-28
2020/12/25 04:14:34;;;;;;;135.20;111.15;;;20.00;51.00;;;;;;4682278;56;21123;-26
2020/12/25 04:19:35;;;;;;;133.18;109.37;;;20.00;51.10;;;;;;4691782;56;21023;-25
2020/12/25 04:24:36;;;;;;;131.12;106.37;;;20.00;51.70;;;;;;4665335;56;21734;-23
2020/12/25 04:29:37;;;;;;;129.82;106.75;;;19.90;51.00;;;;;;4657916;60;21086;-25
2020/12/25 04:34:38;;;;;;;124.87;100.32;;;20.00;51.10;;;;;;4659132;56;21063;-30
2020/12/25 04:39:39;;;;;;;129.52;102.57;;;20.00;51.00;;;;;;4702962;56;21015;-31
2020/12/25 04:44:40;;;;;;;121.82;101.72;;;20.00;51.00;;;;;;4687793;56;21120;-28
2020/12/25 04:49:41;;;;;;;122.53;99.25;;;20.00;51.00;;;;;;4669864;56;21587;-26
2020/12/25 04:54:41;;;;;;;122.60;101.40;;;20.00;51.10;;;;;;4660467;56;21027;-27
2020/12/25 04:59:42;;;;;;;122.75;98.50;;;20.00;51.20;;;;;;4665328;56;21011;-28
2020/12/25 05:04:43;;;;;;;118.25;97.12;;;20.00;51.10;;;;;;4719497;56;21038;-26
2020/12/25 05:09:44;;;;;;;122.15;99.65;;;19.90;51.00;;;;;;4659824;56;21560;-27
2020/12/25 05:14:45;;;;;;;119.00;97.25;;;20.00;51.20;;;;;;4668981;56;21079;-28
2020/12/25 05:19:48;;;;;;;116.40;96.55;;;20.00;51.10;;;;;;4658577;60;21965;-28
2020/12/25 05:24:49;;;;;;;112.97;94.30;;;20.00;51.20;;;;;;4658803;55;21071;-30
2020/12/25 05:29:50;;;;;;;107.63;88.12;;;19.90;51.20;;;;;;4661185;56;22287;-29
2020/12/25 05:34:53;;;;;;;110.03;89.47;;;19.90;51.20;;;;;;4674699;55;20983;-30
2020/12/25 05:39:54;;;;;;;110.47;91.78;;;19.90;51.30;;;;;;4682686;55;21075;-28
2020/12/25 05:44:55;;;;;;;102.57;85.15;;;19.90;51.40;;;;;;4665088;56;21454;-30
2020/12/25 05:49:56;;;;;;;106.43;89.90;;;19.90;51.30;;;;;;4685484;56;21023;-21
2020/12/25 05:54:59;;;;;;;105.18;86.65;;;20.00;51.50;;;;;;4665369;56;21018;-29
2020/12/25 06:00:05;;;;;;;103.60;85.65;;;19.90;51.50;;;;;;4658535;60;21006;-25
2020/12/25 06:05:08;;;;;;;100.62;82.18;;;19.90;51.50;;;;;;4670993;55;21585;-29
2020/12/25 06:10:14;;;;;;;101.45;85.05;;;19.90;51.40;;;;;;4657360;60;21030;-31
2020/12/25 06:15:30;;;;;;;99.40;81.30;;;19.90;51.50;;;;;;4667215;55;21070;-28
2020/12/25 06:20:36;;;;;;;99.37;81.45;;;19.90;51.40;;;;;;4671437;55;21023;-24
2020/12/25 06:25:40;;;;;;;97.03;79.90;;;19.90;51.40;;;;;;4706703;55;21205;-31
2020/12/25 06:30:41;;;;;;;96.28;79.75;;;19.90;51.50;;;;;;4678368;55;21648;-22
2020/12/25 06:35:46;;;;;;;95.55;80.15;;;19.90;51.40;;;;;;4678380;56;21051;-27
2020/12/25 06:40:48;;;;;;;94.32;79.00;;;19.90;51.50;;;;;;4742115;55;21497;-28
2020/12/25 06:45:57;;;;;;;89.82;76.07;;;19.90;51.50;;;;;;4720460;55;21011;-25
2020/12/25 06:51:00;;;;;;;91.18;76.07;;;19.90;51.40;;;;;;4672335;55;21187;-31
2020/12/25 06:56:18;;;;;;;87.57;72.37;;;19.90;51.40;;;;;;4686659;55;21529;-21
2020/12/25 07:01:40;;;;;;;90.35;75.62;;;19.90;51.40;;;;;;4679846;56;21019;-19
2020/12/25 07:06:46;;;;;;;84.72;70.35;;;19.90;51.50;;;;;;4697035;55;21002;-30
2020/12/25 07:11:54;;;;;;;85.85;72.62;;;19.90;51.50;;;;;;4687135;55;21066;-30
2020/12/25 07:16:54;;;;;;;;;;;19.90;51.50;;;;;;4670589;55;21042;-27
2020/12/25 07:21:56;;;;;;;81.68;68.32;;;19.90;51.50;;;;;;4678508;56;20278;-31
2020/12/25 07:26:57;;;;;;;83.45;70.53;;;19.90;51.50;;;;;;4664401;55;21083;-25
2020/12/25 07:31:58;;;;;;;83.43;70.72;;;19.90;51.40;;;;;;4701397;55;21019;-27
2020/12/25 07:36:59;;;;;;;83.78;69.07;;;19.90;51.40;;;;;;4678389;55;21075;-22
2020/12/25 07:42:00;;;;;;;83.93;69.37;;;19.90;51.40;;;;;;4676135;56;21488;-20
2020/12/25 07:47:01;;;;;;;86.57;69.78;;;19.90;51.50;;;;;;4670378;56;21027;-20
2020/12/25 07:52:02;;;;;;;81.93;68.32;;;19.90;51.50;;;;;;4729334;56;21097;-27
2020/12/25 07:57:06;;;;;;;83.60;67.35;;;19.90;51.40;;;;;;4658350;60;21172;-27
2020/12/25 08:02:07;;;;;;;82.78;69.00;;;19.90;51.50;;;;;;4716311;56;21917;-19
2020/12/25 08:07:09;;;;;;;81.78;68.30;;;19.90;51.50;;;;;;4670417;56;21058;-26
2020/12/25 08:12:11;;;;;;;79.95;64.78;;;19.90;51.50;;;;;;4727137;55;21099;-26
2020/12/25 08:17:15;;;;;;;85.53;70.60;;;19.90;51.40;;;;;;4688404;55;21015;-28
2020/12/25 08:22:16;;;;;;;83.95;69.43;;;19.90;51.50;;;;;;4695582;55;21038;-26
2020/12/25 08:27:18;;;;;;;86.40;71.03;;;19.90;51.40;;;;;;4667115;56;21023;-20
2020/12/25 08:32:19;;;;;;;83.65;68.47;;;19.90;51.50;;;;;;4729644;56;20995;-27
2020/12/25 08:37:22;;;;;;;83.45;69.70;;;19.90;51.50;;;;;;4694723;56;21019;-24
2020/12/25 08:42:23;;;;;;;84.47;68.93;;;19.90;51.60;;;;;;4657871;60;21083;-25
2020/12/25 08:47:27;;;;;;;85.03;69.43;;;19.90;51.50;;;;;;4675506;56;21579;-28
2020/12/25 08:52:28;;;;;;;86.00;71.70;;;19.90;51.60;;;;;;4678796;56;21015;-20
2020/12/25 08:57:30;;;;;;;77.28;64.68;;;19.90;51.70;;;;;;4666838;56;21507;-26
2020/12/25 09:02:31;;;;;;;80.72;68.18;;;19.90;51.60;;;;;;4682161;56;21090;-28
2020/12/25 09:07:32;;;;;;;85.12;70.22;;;19.90;51.60;;;;;;4665340;56;21114;-25
2020/12/25 09:12:32;;;;;;;83.50;66.40;;;19.90;51.70;;;;;;4675217;56;21079;-24
2020/12/25 09:17:33;;;;;;;87.00;70.65;;;20.00;52.60;;;;;;4659009;56;21027;-25
2020/12/25 09:22:34;;;;;;;92.12;72.37;;;20.10;52.80;;;;;;4663006;56;21134;-23
2020/12/25 09:27:35;;;;;;;88.22;69.15;;;20.20;52.60;;;;;;4682862;56;21102;-25
2020/12/25 09:32:36;;;;;;;92.03;71.55;;;20.20;53.10;;;;;;4657869;60;22141;-22
2020/12/25 09:37:37;;;;;;;102.20;82.47;;;20.30;53.50;;;;;;4712144;56;21095;-20
2020/12/25 09:42:38;;;;;;;442.73;394.20;;;20.30;53.80;;;;;;4658085;56;21517;-23
2020/12/25 09:47:39;;;;;;;449.88;399.33;;;20.30;54.30;;;;;;4671457;56;21504;-28
2020/12/25 09:52:40;;;;;;;422.20;375.42;;;20.30;54.50;;;;;;4686835;56;21541;-23
2020/12/25 09:57:40;;;;;;;433.00;385.70;;;20.30;54.70;;;;;;4680828;56;21094;-26
2020/12/25 10:02:42;;;;;;;609.00;546.78;;;20.40;54.80;;;;;;4704191;56;21592;-25
2020/12/25 10:07:42;;;;;;;612.10;549.92;;;20.30;55.00;;;;;;4673610;56;21102;-21
2020/12/25 10:12:43;;;;;;;580.42;521.60;;;20.40;55.10;;;;;;4660948;56;21113;-28
2020/12/25 10:17:44;;;;;;;564.05;506.67;;;20.40;55.20;;;;;;4664121;56;21086;-19
2020/12/25 10:22:45;;;;;;;566.88;509.17;;;20.40;55.30;;;;;;4663931;56;21019;-31
2020/12/25 10:27:46;;;;;;;566.55;508.95;;;20.40;55.30;;;;;;4681166;56;21595;-32
2020/12/25 10:32:47;;;;;;;547.70;491.83;;;20.40;55.30;;;;;;4657773;60;21003;-32
2020/12/25 10:37:47;;;;;;;553.95;497.70;;;20.40;55.30;;;;;;4666316;56;21492;-29
2020/12/25 10:42:49;;;;;;;516.70;463.17;;;20.40;55.70;;;;;;4676370;56;21219;-28
2020/12/25 10:47:50;;;;;;;526.53;472.20;;;20.50;55.50;;;;;;4665549;55;21086;-25
2020/12/25 10:52:50;;;;;;;512.30;459.02;;;20.50;56.10;;;;;;4703568;56;21536;-23
2020/12/25 10:57:51;;;;;;;517.55;464.20;;;20.40;55.30;;;;;;4658282;60;21057;-24
2020/12/25 11:02:52;;;;;;;514.65;461.58;;;20.30;55.90;;;;;;4675831;56;21023;-22
2020/12/25 11:07:57;;;;;;;491.83;439.98;;;20.30;55.20;;;;;;4658633;60;21030;-29
2020/12/25 11:12:58;;;;;;;496.40;444.62;;;20.30;55.20;;;;;;4657849;60;21527;-26
2020/12/25 11:17:59;;;;;;;477.77;427.65;;;20.30;55.20;;;;;;4686422;56;21070;-28
2020/12/25 11:23:00;;;;;;;476.98;426.23;;;20.20;55.00;;;;;;4662542;56;21465;-20
2020/12/25 11:28:01;;;;;;;451.25;402.60;;;20.20;55.00;;;;;;4670853;56;21588;-25
2020/12/25 11:33:02;;;;;;;447.35;398.95;;;20.20;54.90;;;;;;4669256;56;21019;-27
2020/12/25 11:38:02;;;;;;;447.70;399.48;;;20.20;54.90;;;;;;4683656;56;21469;-23
2020/12/25 11:43:03;;;;;;;438.95;391.40;;;20.20;54.80;;;;;;4703988;56;21039;-24
2020/12/25 11:48:04;;;;;;;446.80;398.83;;;20.10;54.70;;;;;;4658401;60;21473;-22
2020/12/25 11:53:05;;;;;;;451.95;403.58;;;20.10;54.60;;;;;;4689501;56;21003;-19
2020/12/25 11:58:06;;;;;;;434.65;387.58;;;20.10;55.00;;;;;;4664252;56;21117;-19
2020/12/25 12:03:06;;;;;;;435.10;388.10;;;20.10;54.50;;;;;;4678897;56;21090;-25
2020/12/25 12:08:08;;;;;;;433.95;386.87;;;20.10;54.60;;;;;;4659104;60;21078;-30
2020/12/25 12:13:09;;;;;;;424.05;378.15;;;20.10;54.40;;;;;;4681794;56;21569;-24
2020/12/25 12:18:10;;;;;;;430.20;383.85;;;20.10;54.40;;;;;;4671126;56;21035;-27
2020/12/25 12:23:11;;;;;;;424.80;378.30;;;20.10;54.30;;;;;;4658542;60;21529;-27
2020/12/25 12:28:11;;;;;;;418.70;373.02;;;20.10;54.30;;;;;;4666369;56;21078;-28
2020/12/25 12:33:13;;;;;;;408.85;364.08;;;20.10;54.20;;;;;;4663848;56;21019;-22
2020/12/25 12:38:15;;;;;;;411.05;365.80;;;20.00;54.20;;;;;;4664848;56;21464;-21
2020/12/25 12:43:15;;;;;;;404.73;360.33;;;20.00;54.20;;;;;;4692457;56;21091;-28
2020/12/25 12:48:16;;;;;;;397.33;353.77;;;20.00;54.10;;;;;;4665499;56;21558;-31
2020/12/25 12:53:18;;;;;;;389.08;346.33;;;20.00;54.00;;;;;;4666675;56;20998;-23
2020/12/25 12:58:19;;;;;;;389.67;341.12;;;20.00;53.90;;;;;;4664081;55;21079;-29
2020/12/25 13:03:23;;;;;;;391.73;348.67;;;20.00;53.90;;;;;;4665835;56;21021;-29
2020/12/25 13:08:23;;;;;;;393.73;349.48;;;20.00;53.90;;;;;;4677925;56;21106;-25
2020/12/25 13:13:24;;;;;;;390.90;344.52;;;20.00;53.90;;;;;;4701972;56;21113;-23
2020/12/25 13:18:25;;;;;;;296.40;249.70;;;20.00;54.00;;;;;;4677690;56;21019;-29
2020/12/25 13:23:26;;;;;;;323.58;282.60;;;19.90;53.60;;;;;;4664938;56;21015;-24
2020/12/25 13:28:27;;;;;;;303.92;262.40;;;20.00;54.20;;;;;;4659082;56;21095;-26
2020/12/25 13:33:27;;;;;;;290.30;252.68;;;20.10;54.50;;;;;;4686360;56;21069;-19
2020/12/25 13:38:28;;;;;;;287.27;247.85;;;20.20;54.50;;;;;;4672599;56;21000;-26
2020/12/25 13:43:29;;;;;;;293.30;254.05;;;20.30;54.50;;;;;;4674271;56;21024;-26
2020/12/25 13:48:31;;;;;;;299.95;263.35;;;20.30;54.50;;;;;;4676078;56;21518;-26
2020/12/25 13:53:32;;;;;;;283.90;246.18;;;20.30;54.70;;;;;;4698996;55;21010;-21
2020/12/25 13:58:35;;;;;;;290.38;251.65;;;20.40;54.70;;;;;;4717142;56;21462;-24
2020/12/25 14:03:38;;;;;;;303.40;266.83;;;20.40;54.70;;;;;;4678192;55;21068;-30
2020/12/25 14:08:39;;;;;;;292.58;256.05;;;20.40;54.80;;;;;;4722085;55;21092;-23
2020/12/25 14:13:40;;;;;;;299.95;264.00;;;20.40;54.90;;;;;;4668700;56;21032;-30
2020/12/25 14:18:45;;;;;;;309.85;274.25;;;20.40;54.80;;;;;;4702043;56;21076;-27
2020/12/25 14:23:46;;;;;;;311.60;277.30;;;20.30;55.20;;;;;;4698323;55;21597;-24
2020/12/25 14:28:50;;;;;;;309.73;275.42;;;20.30;55.50;;;;;;4673185;56;21068;-29
2020/12/25 14:33:51;;;;;;;308.15;274.23;;;20.30;55.50;;;;;;4707726;56;21072;-31
2020/12/25 14:38:52;;;;;;;304.23;269.65;;;20.30;55.60;;;;;;4669163;59;22245;-29
2020/12/25 14:43:53;;;;;;;299.27;264.67;;;20.20;55.40;;;;;;4672886;56;21657;-29
2020/12/25 14:48:54;;;;;;;304.10;271.10;;;20.20;55.30;;;;;;4697800;56;21123;-28
2020/12/25 14:53:55;;;;;;;301.77;267.35;;;20.20;55.60;;;;;;4694479;56;21630;-21
2020/12/25 14:58:56;;;;;;;291.55;256.73;;;20.20;55.50;;;;;;4698658;56;21032;-21
2020/12/25 15:03:57;;;;;;;289.48;253.35;;;20.10;55.20;;;;;;4685163;56;21535;-29
2020/12/25 15:08:59;;;;;;;288.10;256.05;;;20.20;55.20;;;;;;4733970;56;21032;-30
2020/12/25 15:14:00;;;;;;;293.67;260.15;;;20.20;55.10;;;;;;4672075;56;21554;-29
2020/12/25 15:19:00;;;;;;;280.02;249.18;;;20.10;55.40;;;;;;4725115;56;21040;-30
2020/12/25 15:24:01;;;;;;;285.83;250.43;;;20.10;55.30;;;;;;4695911;56;21681;-27
2020/12/25 15:29:02;;;;;;;283.83;252.60;;;20.10;55.10;;;;;;4672782;56;21047;-20
2020/12/25 15:34:04;;;;;;;281.60;250.45;;;20.10;55.30;;;;;;4689784;56;21886;-31
2020/12/25 15:39:06;;;;;;;280.30;249.00;;;20.10;55.10;;;;;;4680194;55;21087;-27
2020/12/25 15:44:07;;;;;;;278.37;247.52;;;20.10;54.90;;;;;;4682718;56;21538;-31
2020/12/25 15:49:08;;;;;;;266.65;237.18;;;20.10;55.20;;;;;;4688432;56;21088;-32
2020/12/25 15:54:11;;;;;;;277.35;246.82;;;20.10;54.90;;;;;;4681353;56;21024;-26
2020/12/25 15:59:12;;;;;;;270.70;240.85;;;20.10;54.90;;;;;;4693179;55;21610;-25
2020/12/25 16:04:12;;;;;;;270.27;239.52;;;20.10;55.30;;;;;;4669001;59;21083;-21
2020/12/25 16:09:13;;;;;;;267.50;238.43;;;20.00;55.00;;;;;;4691461;56;21000;-27
2020/12/25 16:14:14;;;;;;;269.50;240.00;;;20.10;55.10;;;;;;4698662;56;21903;-29
2020/12/25 16:19:15;;;;;;;264.65;235.63;;;20.10;55.10;;;;;;4670697;56;21216;-32
2020/12/25 16:24:16;;;;;;;263.52;234.43;;;20.10;55.10;;;;;;4683959;56;21077;-28
2020/12/25 16:29:17;;;;;;;256.40;227.40;;;20.10;54.80;;;;;;4670145;56;21072;-26
2020/12/25 16:34:18;;;;;;;262.98;234.12;;;20.00;54.80;;;;;;4697763;56;21064;-26
2020/12/25 16:39:19;;;;;;;254.23;225.50;;;20.00;55.00;;;;;;4676078;56;21020;-26
2020/12/25 16:44:20;;;;;;;252.30;224.52;;;20.00;55.00;;;;;;4688774;56;21191;-29
2020/12/25 16:49:21;;;;;;;244.55;217.52;;;20.00;54.70;;;;;;4683366;55;21115;-21
2020/12/25 16:54:23;;;;;;;250.13;219.73;;;20.00;54.80;;;;;;4691090;56;21542;-29
2020/12/25 16:59:24;;;;;;;258.33;229.98;;;20.00;54.80;;;;;;4679399;55;21028;-29
2020/12/25 17:04:25;;;;;;;238.87;212.63;;;20.00;54.70;;;;;;4683637;56;21016;-28
2020/12/25 17:09:29;;;;;;;247.52;215.62;;;20.00;54.80;;;;;;4702136;56;21032;-30
2020/12/25 17:14:29;;;;;;;243.80;216.77;;;20.00;54.70;;;;;;4678537;55;21119;-27
2020/12/25 17:19:31;;;;;;;243.35;216.60;;;20.00;55.00;;;;;;4679480;56;21274;-31
2020/12/25 17:24:32;;;;;;;242.02;211.32;;;20.00;54.80;;;;;;4668961;59;21089;-27
2020/12/25 17:29:33;;;;;;;241.70;212.73;;;20.00;54.70;;;;;;4703861;55;21024;-33
2020/12/25 17:34:34;;;;;;;242.82;213.15;;;20.00;54.60;;;;;;4673583;56;21807;-32
2020/12/25 17:39:35;;;;;;;239.90;213.48;;;20.00;54.70;;;;;;4684374;55;21016;-28
2020/12/25 17:44:36;;;;;;;242.90;212.82;;;20.00;54.50;;;;;;4713502;56;21585;-30
2020/12/25 17:49:37;;;;;;;236.32;208.45;;;20.00;54.70;;;;;;4679991;56;21036;-30
2020/12/25 17:54:38;;;;;;;238.80;211.80;;;20.00;54.60;;;;;;4681647;56;21052;-29
2020/12/25 17:59:39;;;;;;;237.55;204.90;;;20.00;54.40;;;;;;4676662;56;21072;-28
2020/12/25 18:04:41;;;;;;;229.75;195.70;;;20.10;55.00;;;;;;4713248;56;21065;-27
2020/12/25 18:09:42;;;;;;;228.50;201.02;;;20.10;54.80;;;;;;4679205;56;21919;-23
2020/12/25 18:14:42;;;;;;;227.52;198.38;;;20.10;55.30;;;;;;4674332;56;21036;-24
2020/12/25 18:19:43;;;;;;;226.90;201.95;;;20.10;55.00;;;;;;4673829;56;21080;-27
2020/12/25 18:24:45;;;;;;;226.32;201.07;;;20.10;55.40;;;;;;4676953;56;21486;-25
2020/12/25 18:29:46;;;;;;;226.70;198.25;;;20.10;54.90;;;;;;4674783;56;21557;-20
2020/12/25 18:34:47;;;;;;;224.10;197.93;;;20.10;54.90;;;;;;4691714;56;21007;-22
2020/12/25 18:39:51;;;;;;;225.40;193.62;;;20.10;54.80;;;;;;4675747;56;21063;-24
2020/12/25 18:44:52;;;;;;;218.90;190.15;;;20.10;54.70;;;;;;4711330;56;21020;-21
2020/12/25 18:49:53;;;;;;;219.35;191.02;;;20.10;54.70;;;;;;4671841;56;21024;-20
2020/12/25 18:54:54;;;;;;;218.52;190.55;;;20.00;54.70;;;;;;4700043;56;21071;-19
2020/12/25 18:59:55;;;;;;;220.88;193.48;;;20.00;54.50;;;;;;4687644;56;21075;-31
2020/12/25 19:04:56;;;;;;;214.85;187.48;;;20.00;54.50;;;;;;4696176;56;21043;-23
2020/12/25 19:09:57;;;;;;;209.45;183.87;;;20.00;54.70;;;;;;4672158;56;21024;-22
2020/12/25 19:14:58;;;;;;;209.55;178.87;;;20.00;54.70;;;;;;4693547;55;21071;-28
2020/12/25 19:19:59;;;;;;;210.52;184.10;;;20.00;54.50;;;;;;4670442;59;21506;-30
2020/12/25 19:25:00;;;;;;;208.82;179.85;;;20.00;54.60;;;;;;4673483;56;21324;-20
2020/12/25 19:30:01;;;;;;;213.55;184.45;;;20.00;54.50;;;;;;4688012;56;21578;-28
2020/12/25 19:35:02;;;;;;;202.95;177.60;;;20.00;54.50;;;;;;4700955;55;21110;-25
2020/12/25 19:40:07;;;;;;;203.37;172.13;;;20.00;54.50;;;;;;4669825;59;21024;-21
2020/12/25 19:45:09;;;;;;;205.50;178.90;;;20.00;54.40;;;;;;4669694;59;21546;-25
2020/12/25 19:50:09;;;;;;;194.02;170.43;;;20.00;54.40;;;;;;4690473;56;21542;-21
2020/12/25 19:55:10;;;;;;;202.18;174.45;;;20.00;54.70;;;;;;4724157;56;21051;-20
2020/12/25 20:00:12;;;;;;;196.35;166.77;;;20.00;54.50;;;;;;4692302;55;21072;-24
2020/12/25 20:05:14;;;;;;;203.20;175.95;;;20.00;54.50;;;;;;4692413;55;21060;-19
2020/12/25 20:10:15;;;;;;;196.43;168.80;;;20.00;54.50;;;;;;4691179;56;21012;-31
2020/12/25 20:15:15;;;;;;;196.98;166.10;;;20.00;54.50;;;;;;4669649;59;21116;-21
2020/12/25 20:20:16;;;;;;;196.95;169.00;;;20.00;54.30;;;;;;4684616;56;21070;-21
2020/12/25 20:25:17;;;;;;;195.95;169.85;;;20.00;54.50;;;;;;4672336;56;21016;-25
2020/12/25 20:30:18;;;;;;;191.98;164.35;;;20.00;54.30;;;;;;4684467;56;21134;-22
2020/12/25 20:35:22;;;;;;;188.48;165.32;;;20.00;54.30;;;;;;4680384;56;21073;-20
2020/12/25 20:40:23;;;;;;;185.02;156.90;;;20.00;54.20;;;;;;4689224;56;21059;-26
2020/12/25 20:45:23;;;;;;;189.68;161.00;;;20.00;54.20;;;;;;4689304;56;21110;-29
2020/12/25 20:50:24;;;;;;;183.23;159.82;;;20.00;54.30;;;;;;4672669;56;21028;-26
2020/12/25 20:55:25;;;;;;;181.93;157.30;;;20.00;54.10;;;;;;4689219;56;21040;-26
2020/12/25 21:00:26;;;;;;;185.75;158.15;;;20.00;54.20;;;;;;4676211;56;21017;-31
2020/12/25 21:05:28;;;;;;;177.18;150.98;;;20.00;54.10;;;;;;4669213;59;21034;-29
2020/12/25 21:10:29;;;;;;;177.18;149.95;;;20.00;54.20;;;;;;4677024;56;21597;-19
2020/12/25 21:15:30;;;;;;;176.93;152.05;;;20.00;54.10;;;;;;4669483;59;21019;-31
2020/12/25 21:20:31;;;;;;;173.10;147.62;;;20.00;54.20;;;;;;4669549;59;21040;-28
2020/12/25 21:25:32;;;;;;;176.90;151.35;;;20.00;54.10;;;;;;4732267;56;21084;-25
2020/12/25 21:30:33;;;;;;;177.05;151.37;;;20.00;54.00;;;;;;4689465;55;21582;-27
2020/12/25 21:35:34;;;;;;;174.62;150.20;;;20.00;53.90;;;;;;4672399;56;21133;-25
2020/12/25 21:40:35;;;;;;;172.50;148.00;;;20.00;53.80;;;;;;4714549;56;21459;-26
2020/12/25 21:45:36;;;;;;;172.82;145.10;;;20.00;54.00;;;;;;4720843;56;21032;-22
2020/12/25 21:50:36;;;;;;;168.07;142.98;;;20.00;53.90;;;;;;4707624;56;21076;-26
2020/12/25 21:55:37;;;;;;;166.30;144.90;;;20.00;53.80;;;;;;4678947;56;21539;-22
2020/12/25 22:00:38;;;;;;;168.43;143.48;;;20.00;53.80;;;;;;4683077;56;21517;-20
2020/12/25 22:05:40;;;;;;;163.32;141.70;;;20.00;53.80;;;;;;4682055;56;21016;-23
2020/12/25 22:10:42;;;;;;;161.45;140.45;;;20.00;53.80;;;;;;4688632;55;21525;-20
2020/12/25 22:15:42;;;;;;;159.02;136.75;;;20.00;53.80;;;;;;4681114;56;21028;-26
2020/12/25 22:20:44;;;;;;;166.12;140.23;;;20.00;53.70;;;;;;4675254;56;21076;-23
2020/12/25 22:25:45;;;;;;;155.50;134.48;;;20.00;53.60;;;;;;4687642;55;21565;-27
2020/12/25 22:30:46;;;;;;;155.63;136.12;;;20.00;53.60;;;;;;4671030;56;21032;-25
2020/12/25 22:35:47;;;;;;;154.38;131.80;;;20.00;53.70;;;;;;4685490;56;21023;-31
2020/12/25 22:40:49;;;;;;;152.73;130.35;;;20.00;53.60;;;;;;4691578;56;21087;-31
2020/12/25 22:45:49;;;;;;;155.37;134.75;;;20.00;53.60;;;;;;4795177;55;21122;-29
2020/12/25 22:51:02;;;;;;;151.45;133.43;;;20.00;53.50;;;;;;4672501;56;21527;-22
2020/12/25 22:56:04;;;;;;;150.23;128.82;;;20.00;53.70;;;;;;4700919;56;21927;-30
2020/12/25 23:01:05;;;;;;;144.43;126.87;;;20.00;53.50;;;;;;4695227;56;21518;-30
2020/12/25 23:06:06;;;;;;;148.15;129.05;;;20.00;53.60;;;;;;4674124;56;21080;-25
2020/12/25 23:11:08;;;;;;;143.62;125.07;;;20.00;53.40;;;;;;4692890;56;21143;-28
2020/12/25 23:16:16;;;;;;;142.87;122.20;;;20.00;53.40;;;;;;4700119;56;21542;-33
2020/12/25 23:21:21;;;;;;;142.57;122.35;;;20.00;53.40;;;;;;4688453;55;21008;-23
2020/12/25 23:26:24;;;;;;;140.07;120.97;;;20.00;53.50;;;;;;4685496;55;21080;-20
2020/12/25 23:31:26;;;;;;;146.48;125.20;;;20.00;53.50;;;;;;4686988;55;21044;-31
2020/12/25 23:36:27;;;;;;;139.43;119.95;;;20.00;53.30;;;;;;4670054;59;21080;-30
2020/12/25 23:41:28;;;;;;;137.65;120.82;;;20.00;53.30;;;;;;4670992;56;21545;-32
2020/12/25 23:46:29;;;;;;;141.60;120.50;;;20.00;53.40;;;;;;4698303;56;21085;-30
2020/12/25 23:51:30;;;;;;;134.70;118.00;;;20.00;53.30;;;;;;4679345;56;21569;-32
2020/12/25 23:56:31;;;;;;;134.93;115.93;;;20.00;53.40;;;;;;4674280;55;21139;-29
